ETR2646 SVMI-SVMC
Flight info
| Callsign | ETR2646 |
|---|---|
| Flight time | 0h 58m |
| Altitude | 30000 |
| Route | MARES1 MARES A315 ATONO G427 PBL UW52 MAU A552 MAR |
| Aircraft | A320/M-SDE3FGHIRWY/LB1 |
Departure
| Time | 2026-04-30 21:19 |
|---|---|
| Airport | Maiquetía Simón Bolívar International Airport (SVMI) |
Arrival
| Time | 2026-04-30 22:18 |
|---|---|
| Airport | La Chinita International Airport (SVMC) |
| Time | Latitude | Longitude | Altitude | Speed | Heading |
|---|---|---|---|---|---|
| 2026-04-30 20:48 | 10.59977 | -67.00166 | 243 ft | 0 kts | 178° |
| 2026-04-30 21:13 | 10.59975 | -67.00166 | 242 ft | 1 kts | 178° |
| 2026-04-30 21:13 | 10.59940 | -67.00166 | 243 ft | 8 kts | 191° |
| 2026-04-30 21:14 | 10.59917 | -67.00221 | 242 ft | 9 kts | 273° |
| 2026-04-30 21:14 | 10.59924 | -67.00290 | 242 ft | 10 kts | 271° |
| 2026-04-30 21:14 | 10.59925 | -67.00362 | 242 ft | 10 kts | 271° |
| 2026-04-30 21:14 | 10.59924 | -67.00439 | 242 ft | 10 kts | 267° |
| 2026-04-30 21:15 | 10.59916 | -67.00517 | 243 ft | 11 kts | 262° |
| 2026-04-30 21:15 | 10.59912 | -67.00597 | 242 ft | 11 kts | 269° |
| 2026-04-30 21:15 | 10.59911 | -67.00678 | 242 ft | 11 kts | 268° |
| 2026-04-30 21:15 | 10.59907 | -67.00763 | 242 ft | 11 kts | 266° |
| 2026-04-30 21:16 | 10.59904 | -67.00847 | 242 ft | 12 kts | 269° |
| 2026-04-30 21:16 | 10.59902 | -67.00934 | 242 ft | 12 kts | 269° |
| 2026-04-30 21:16 | 10.59900 | -67.01021 | 243 ft | 12 kts | 268° |
| 2026-04-30 21:16 | 10.59897 | -67.01109 | 243 ft | 12 kts | 268° |
| 2026-04-30 21:17 | 10.59896 | -67.01198 | 243 ft | 12 kts | 279° |
| 2026-04-30 21:17 | 10.59957 | -67.01250 | 243 ft | 12 kts | 351° |
| 2026-04-30 21:17 | 10.60045 | -67.01251 | 242 ft | 12 kts | 0° |
| 2026-04-30 21:17 | 10.60132 | -67.01253 | 242 ft | 12 kts | 356° |
| 2026-04-30 21:18 | 10.60228 | -67.01258 | 242 ft | 16 kts | 359° |
| 2026-04-30 21:18 | 10.60349 | -67.01254 | 243 ft | 13 kts | 22° |
| 2026-04-30 21:18 | 10.60380 | -67.01159 | 242 ft | 21 kts | 89° |
| 2026-04-30 21:18 | 10.60392 | -67.00769 | 243 ft | 88 kts | 89° |
| 2026-04-30 21:19 | 10.60420 | -66.99951 | 243 ft | 143 kts | 88° |
| 2026-04-30 21:19 | 10.60443 | -66.98772 | 335 ft | 181 kts | 89° |
| 2026-04-30 21:19 | 10.60504 | -66.97477 | 729 ft | 193 kts | 82° |
| 2026-04-30 21:19 | 10.61130 | -66.96223 | 1137 ft | 213 kts | 39° |
| 2026-04-30 21:20 | 10.62520 | -66.95721 | 1799 ft | 224 kts | 356° |
| 2026-04-30 21:20 | 10.63955 | -66.96284 | 2497 ft | 232 kts | 318° |
| 2026-04-30 21:20 | 10.64784 | -66.97707 | 3034 ft | 246 kts | 279° |
| 2026-04-30 21:20 | 10.64836 | -66.99487 | 3592 ft | 258 kts | 270° |
| 2026-04-30 21:21 | 10.64993 | -67.01331 | 4121 ft | 264 kts | 279° |
| 2026-04-30 21:21 | 10.65306 | -67.03185 | 4650 ft | 270 kts | 281° |
| 2026-04-30 21:21 | 10.66947 | -67.06631 | 5571 ft | 282 kts | 311° |
| 2026-04-30 21:22 | 10.68228 | -67.08127 | 6021 ft | 284 kts | 312° |
| 2026-04-30 21:22 | 10.72113 | -67.12758 | 7631 ft | 291 kts | 310° |
| 2026-04-30 21:23 | 10.73389 | -67.14346 | 8281 ft | 294 kts | 310° |
| 2026-04-30 21:23 | 10.74668 | -67.15949 | 8978 ft | 295 kts | 310° |
| 2026-04-30 21:23 | 10.77284 | -67.19249 | 10496 ft | 314 kts | 307° |
| 2026-04-30 21:24 | 10.78262 | -67.21252 | 11227 ft | 330 kts | 283° |
| 2026-04-30 21:24 | 10.78273 | -67.23596 | 11982 ft | 343 kts | 256° |
| 2026-04-30 21:24 | 10.77513 | -67.25936 | 12761 ft | 355 kts | 249° |
| 2026-04-30 21:24 | 10.76628 | -67.28329 | 13521 ft | 366 kts | 249° |
| 2026-04-30 21:25 | 10.74810 | -67.33292 | 15030 ft | 385 kts | 250° |
| 2026-04-30 21:25 | 10.73893 | -67.35841 | 15777 ft | 392 kts | 250° |
| 2026-04-30 21:25 | 10.72962 | -67.38454 | 16529 ft | 398 kts | 250° |
| 2026-04-30 21:26 | 10.71062 | -67.43822 | 18040 ft | 407 kts | 250° |
| 2026-04-30 21:26 | 10.70118 | -67.46511 | 18787 ft | 410 kts | 250° |
| 2026-04-30 21:27 | 10.68192 | -67.51980 | 20295 ft | 412 kts | 251° |
| 2026-04-30 21:27 | 10.67234 | -67.54697 | 21042 ft | 412 kts | 251° |
| 2026-04-30 21:27 | 10.66265 | -67.57442 | 21797 ft | 412 kts | 251° |
| 2026-04-30 21:28 | 10.64346 | -67.62875 | 23295 ft | 410 kts | 251° |
| 2026-04-30 21:28 | 10.63386 | -67.65591 | 24048 ft | 408 kts | 251° |
| 2026-04-30 21:28 | 10.61486 | -67.70964 | 25463 ft | 404 kts | 252° |
| 2026-04-30 21:29 | 10.60537 | -67.73653 | 25913 ft | 409 kts | 252° |
| 2026-04-30 21:29 | 10.57620 | -67.81895 | 27272 ft | 418 kts | 252° |
| 2026-04-30 21:30 | 10.55646 | -67.87461 | 28175 ft | 422 kts | 252° |
| 2026-04-30 21:31 | 10.52636 | -67.95947 | 29050 ft | 433 kts | 252° |
| 2026-04-30 21:31 | 10.50584 | -68.01722 | 29429 ft | 441 kts | 252° |
| 2026-04-30 21:32 | 10.48917 | -68.07765 | 29687 ft | 446 kts | 265° |
| 2026-04-30 21:32 | 10.48681 | -68.10880 | 29814 ft | 447 kts | 273° |
| 2026-04-30 21:32 | 10.49054 | -68.17262 | 29854 ft | 459 kts | 278° |
| 2026-04-30 21:33 | 10.49837 | -68.27115 | 29854 ft | 472 kts | 277° |
| 2026-04-30 21:34 | 10.50332 | -68.33766 | 29853 ft | 473 kts | 277° |
| 2026-04-30 21:34 | 10.51059 | -68.43742 | 29853 ft | 473 kts | 277° |
| 2026-04-30 21:35 | 10.51539 | -68.50375 | 29867 ft | 472 kts | 277° |
| 2026-04-30 21:35 | 10.52016 | -68.56995 | 29893 ft | 471 kts | 277° |
| 2026-04-30 21:36 | 10.52490 | -68.63603 | 29927 ft | 470 kts | 277° |
| 2026-04-30 21:37 | 10.53435 | -68.76807 | 29980 ft | 469 kts | 277° |
| 2026-04-30 21:37 | 10.53907 | -68.83429 | 29990 ft | 469 kts | 277° |
| 2026-04-30 21:38 | 10.54373 | -68.89984 | 29994 ft | 469 kts | 277° |
| 2026-04-30 21:38 | 10.54842 | -68.96603 | 29996 ft | 468 kts | 277° |
| 2026-04-30 21:39 | 10.55305 | -69.03144 | 29996 ft | 467 kts | 277° |
| 2026-04-30 21:39 | 10.55766 | -69.09699 | 29996 ft | 465 kts | 277° |
| 2026-04-30 21:40 | 10.56227 | -69.16270 | 29996 ft | 465 kts | 277° |
| 2026-04-30 21:40 | 10.56682 | -69.22774 | 29995 ft | 465 kts | 277° |
| 2026-04-30 21:41 | 10.57140 | -69.29337 | 29995 ft | 465 kts | 277° |
| 2026-04-30 21:41 | 10.57595 | -69.35873 | 29996 ft | 465 kts | 277° |
| 2026-04-30 21:42 | 10.58048 | -69.42409 | 29995 ft | 465 kts | 277° |
| 2026-04-30 21:42 | 10.58502 | -69.48963 | 29995 ft | 465 kts | 277° |
| 2026-04-30 21:43 | 10.58878 | -69.54407 | 29995 ft | 465 kts | 277° |
| 2026-04-30 21:43 | 10.59401 | -69.62032 | 29954 ft | 465 kts | 277° |
| 2026-04-30 21:44 | 10.59626 | -69.65298 | 29458 ft | 466 kts | 277° |
| 2026-04-30 21:44 | 10.59853 | -69.68604 | 28797 ft | 464 kts | 276° |
| 2026-04-30 21:44 | 10.60088 | -69.71832 | 28161 ft | 461 kts | 275° |
| 2026-04-30 21:44 | 10.60323 | -69.75048 | 27515 ft | 457 kts | 274° |
| 2026-04-30 21:45 | 10.60528 | -69.78248 | 26864 ft | 454 kts | 274° |
| 2026-04-30 21:45 | 10.60728 | -69.81416 | 26215 ft | 451 kts | 274° |
| 2026-04-30 21:45 | 10.60932 | -69.84596 | 25719 ft | 447 kts | 274° |
| 2026-04-30 21:45 | 10.61139 | -69.87746 | 25271 ft | 450 kts | 274° |
| 2026-04-30 21:46 | 10.61347 | -69.90898 | 24884 ft | 451 kts | 274° |
| 2026-04-30 21:46 | 10.61560 | -69.94094 | 24532 ft | 452 kts | 274° |
| 2026-04-30 21:46 | 10.61772 | -69.97270 | 24182 ft | 453 kts | 274° |
| 2026-04-30 21:46 | 10.61986 | -70.00463 | 23832 ft | 453 kts | 274° |
| 2026-04-30 21:47 | 10.62199 | -70.03633 | 23484 ft | 454 kts | 274° |
| 2026-04-30 21:47 | 10.62414 | -70.06836 | 23133 ft | 455 kts | 274° |
| 2026-04-30 21:47 | 10.62627 | -70.10026 | 22784 ft | 455 kts | 274° |
| 2026-04-30 21:47 | 10.62845 | -70.13269 | 22430 ft | 456 kts | 274° |
| 2026-04-30 21:48 | 10.63058 | -70.16446 | 22084 ft | 457 kts | 274° |
| 2026-04-30 21:48 | 10.63274 | -70.19685 | 21731 ft | 457 kts | 274° |
| 2026-04-30 21:48 | 10.63489 | -70.22879 | 21385 ft | 458 kts | 274° |
| 2026-04-30 21:48 | 10.63705 | -70.26096 | 21036 ft | 458 kts | 274° |
| 2026-04-30 21:49 | 10.63921 | -70.29342 | 20684 ft | 459 kts | 274° |
| 2026-04-30 21:49 | 10.64136 | -70.32570 | 20334 ft | 460 kts | 274° |
| 2026-04-30 21:49 | 10.64349 | -70.35792 | 19985 ft | 460 kts | 274° |
| 2026-04-30 21:49 | 10.64565 | -70.39055 | 19632 ft | 460 kts | 274° |
| 2026-04-30 21:50 | 10.64778 | -70.42289 | 19280 ft | 457 kts | 274° |
| 2026-04-30 21:50 | 10.64988 | -70.45489 | 18931 ft | 455 kts | 274° |
| 2026-04-30 21:50 | 10.65200 | -70.48702 | 18577 ft | 450 kts | 274° |
| 2026-04-30 21:50 | 10.65405 | -70.51813 | 18225 ft | 439 kts | 274° |
| 2026-04-30 21:51 | 10.65607 | -70.54867 | 17780 ft | 430 kts | 274° |
| 2026-04-30 21:51 | 10.65804 | -70.57850 | 17331 ft | 422 kts | 274° |
| 2026-04-30 21:51 | 10.66000 | -70.60819 | 16876 ft | 415 kts | 274° |
| 2026-04-30 21:51 | 10.66191 | -70.63707 | 16383 ft | 411 kts | 274° |
| 2026-04-30 21:52 | 10.66381 | -70.66606 | 15881 ft | 411 kts | 274° |
| 2026-04-30 21:52 | 10.66571 | -70.69514 | 15379 ft | 412 kts | 274° |
| 2026-04-30 21:52 | 10.66759 | -70.72399 | 14882 ft | 413 kts | 274° |
| 2026-04-30 21:52 | 10.66948 | -70.75307 | 14382 ft | 414 kts | 274° |
| 2026-04-30 21:53 | 10.67135 | -70.78190 | 13881 ft | 408 kts | 274° |
| 2026-04-30 21:53 | 10.67319 | -70.81033 | 13382 ft | 402 kts | 274° |
| 2026-04-30 21:53 | 10.67503 | -70.83866 | 12877 ft | 396 kts | 274° |
| 2026-04-30 21:53 | 10.67682 | -70.86628 | 12377 ft | 391 kts | 274° |
| 2026-04-30 21:54 | 10.67859 | -70.89360 | 11877 ft | 386 kts | 274° |
| 2026-04-30 21:54 | 10.68034 | -70.92059 | 11377 ft | 381 kts | 274° |
| 2026-04-30 21:54 | 10.68148 | -70.93823 | 11048 ft | 381 kts | 274° |
| 2026-04-30 21:54 | 10.68378 | -70.97400 | 10381 ft | 382 kts | 274° |
| 2026-04-30 21:55 | 10.68550 | -71.00085 | 9877 ft | 377 kts | 274° |
| 2026-04-30 21:55 | 10.68653 | -71.02738 | 9375 ft | 373 kts | 270° |
| 2026-04-30 21:55 | 10.68554 | -71.05353 | 8873 ft | 369 kts | 265° |
| 2026-04-30 21:55 | 10.68255 | -71.07891 | 8378 ft | 365 kts | 261° |
| 2026-04-30 21:56 | 10.67862 | -71.10438 | 7912 ft | 361 kts | 261° |
| 2026-04-30 21:56 | 10.67460 | -71.12944 | 7509 ft | 355 kts | 261° |
| 2026-04-30 21:56 | 10.67072 | -71.15363 | 7223 ft | 346 kts | 261° |
| 2026-04-30 21:56 | 10.66694 | -71.17732 | 6973 ft | 337 kts | 261° |
| 2026-04-30 21:57 | 10.66321 | -71.20076 | 6728 ft | 328 kts | 261° |
| 2026-04-30 21:57 | 10.65965 | -71.22325 | 6552 ft | 318 kts | 261° |
| 2026-04-30 21:57 | 10.65620 | -71.24504 | 6374 ft | 309 kts | 261° |
| 2026-04-30 21:57 | 10.65284 | -71.26627 | 6197 ft | 301 kts | 261° |
| 2026-04-30 21:58 | 10.64957 | -71.28698 | 6020 ft | 293 kts | 261° |
| 2026-04-30 21:58 | 10.64638 | -71.30716 | 5842 ft | 286 kts | 261° |
| 2026-04-30 21:58 | 10.64326 | -71.32684 | 5665 ft | 279 kts | 261° |
| 2026-04-30 21:58 | 10.64023 | -71.34604 | 5488 ft | 273 kts | 261° |
| 2026-04-30 21:59 | 10.63725 | -71.36481 | 5311 ft | 266 kts | 261° |
| 2026-04-30 21:59 | 10.63435 | -71.38316 | 5133 ft | 260 kts | 261° |
| 2026-04-30 21:59 | 10.63144 | -71.40149 | 4956 ft | 260 kts | 261° |
| 2026-04-30 22:00 | 10.62572 | -71.43750 | 4609 ft | 260 kts | 261° |
| 2026-04-30 22:00 | 10.61994 | -71.47385 | 4265 ft | 260 kts | 260° |
| 2026-04-30 22:00 | 10.61693 | -71.49203 | 4090 ft | 261 kts | 260° |
| 2026-04-30 22:01 | 10.61394 | -71.51022 | 3925 ft | 260 kts | 261° |
| 2026-04-30 22:01 | 10.61101 | -71.52824 | 3802 ft | 261 kts | 261° |
| 2026-04-30 22:01 | 10.60807 | -71.54658 | 3676 ft | 261 kts | 261° |
| 2026-04-30 22:01 | 10.60518 | -71.56478 | 3552 ft | 261 kts | 261° |
| 2026-04-30 22:02 | 10.60230 | -71.58289 | 3428 ft | 261 kts | 261° |
| 2026-04-30 22:02 | 10.59939 | -71.60120 | 3298 ft | 256 kts | 261° |
| 2026-04-30 22:02 | 10.59661 | -71.61873 | 3171 ft | 249 kts | 261° |
| 2026-04-30 22:02 | 10.59391 | -71.63571 | 3042 ft | 242 kts | 261° |
| 2026-04-30 22:03 | 10.59116 | -71.65231 | 2997 ft | 230 kts | 260° |
| 2026-04-30 22:03 | 10.58852 | -71.66802 | 2993 ft | 222 kts | 260° |
| 2026-04-30 22:03 | 10.58591 | -71.68353 | 2995 ft | 222 kts | 260° |
| 2026-04-30 22:03 | 10.58330 | -71.69899 | 2996 ft | 222 kts | 260° |
| 2026-04-30 22:04 | 10.58070 | -71.71452 | 2997 ft | 222 kts | 260° |
| 2026-04-30 22:04 | 10.57809 | -71.73002 | 2995 ft | 222 kts | 260° |
| 2026-04-30 22:04 | 10.56777 | -71.75927 | 2655 ft | 223 kts | 234° |
| 2026-04-30 22:05 | 10.55853 | -71.77187 | 2482 ft | 223 kts | 232° |
| 2026-04-30 22:05 | 10.54897 | -71.78417 | 2308 ft | 223 kts | 231° |
| 2026-04-30 22:05 | 10.53892 | -71.79627 | 2127 ft | 223 kts | 221° |
| 2026-04-30 22:05 | 10.52656 | -71.80563 | 2006 ft | 222 kts | 212° |
| 2026-04-30 22:06 | 10.51353 | -71.81375 | 1998 ft | 218 kts | 211° |
| 2026-04-30 22:06 | 10.48852 | -71.82872 | 1993 ft | 203 kts | 210° |
| 2026-04-30 22:06 | 10.47638 | -71.83596 | 1995 ft | 203 kts | 210° |
| 2026-04-30 22:07 | 10.46419 | -71.84322 | 1996 ft | 203 kts | 210° |
| 2026-04-30 22:07 | 10.45193 | -71.85053 | 1997 ft | 203 kts | 210° |
| 2026-04-30 22:07 | 10.43987 | -71.85774 | 1997 ft | 203 kts | 210° |
| 2026-04-30 22:07 | 10.42765 | -71.86502 | 1992 ft | 200 kts | 210° |
| 2026-04-30 22:08 | 10.41582 | -71.87208 | 1987 ft | 193 kts | 210° |
| 2026-04-30 22:08 | 10.40451 | -71.87884 | 1978 ft | 184 kts | 210° |
| 2026-04-30 22:08 | 10.39349 | -71.88542 | 1990 ft | 184 kts | 210° |
| 2026-04-30 22:08 | 10.38247 | -71.89201 | 1994 ft | 184 kts | 210° |
| 2026-04-30 22:09 | 10.37154 | -71.89874 | 1994 ft | 184 kts | 216° |
| 2026-04-30 22:09 | 10.36168 | -71.90696 | 1998 ft | 184 kts | 223° |
| 2026-04-30 22:09 | 10.35252 | -71.91579 | 1990 ft | 180 kts | 224° |
| 2026-04-30 22:09 | 10.34335 | -71.92426 | 1984 ft | 177 kts | 210° |
| 2026-04-30 22:10 | 10.33170 | -71.92716 | 1976 ft | 177 kts | 168° |
| 2026-04-30 22:10 | 10.32098 | -71.92147 | 1994 ft | 177 kts | 127° |
| 2026-04-30 22:10 | 10.31548 | -71.91045 | 2022 ft | 177 kts | 110° |
| 2026-04-30 22:10 | 10.31148 | -71.89851 | 2004 ft | 177 kts | 101° |
| 2026-04-30 22:11 | 10.30877 | -71.87360 | 1999 ft | 177 kts | 94° |
| 2026-04-30 22:11 | 10.30897 | -71.86120 | 1996 ft | 177 kts | 82° |
| 2026-04-30 22:11 | 10.31105 | -71.84892 | 1999 ft | 177 kts | 78° |
| 2026-04-30 22:12 | 10.31517 | -71.83726 | 1976 ft | 177 kts | 50° |
| 2026-04-30 22:12 | 10.32456 | -71.82906 | 2005 ft | 177 kts | 30° |
| 2026-04-30 22:12 | 10.33547 | -71.82338 | 2002 ft | 177 kts | 24° |
| 2026-04-30 22:12 | 10.34680 | -71.81852 | 1999 ft | 177 kts | 22° |
| 2026-04-30 22:13 | 10.35830 | -71.81378 | 1998 ft | 177 kts | 22° |
| 2026-04-30 22:13 | 10.36964 | -71.80910 | 1997 ft | 177 kts | 22° |
| 2026-04-30 22:13 | 10.38110 | -71.80431 | 1997 ft | 177 kts | 22° |
| 2026-04-30 22:13 | 10.39240 | -71.79953 | 1997 ft | 177 kts | 22° |
| 2026-04-30 22:14 | 10.40375 | -71.79471 | 1997 ft | 177 kts | 22° |
| 2026-04-30 22:14 | 10.41509 | -71.78988 | 2013 ft | 176 kts | 22° |
| 2026-04-30 22:14 | 10.42599 | -71.78522 | 2081 ft | 166 kts | 23° |
| 2026-04-30 22:14 | 10.43658 | -71.78069 | 2025 ft | 164 kts | 23° |
| 2026-04-30 22:15 | 10.44712 | -71.77618 | 2008 ft | 164 kts | 22° |
| 2026-04-30 22:15 | 10.45755 | -71.77174 | 2002 ft | 164 kts | 22° |
| 2026-04-30 22:15 | 10.46459 | -71.76875 | 1954 ft | 165 kts | 22° |
| 2026-04-30 22:15 | 10.47873 | -71.76274 | 1672 ft | 164 kts | 22° |
| 2026-04-30 22:16 | 10.48925 | -71.75826 | 1462 ft | 164 kts | 22° |
| 2026-04-30 22:16 | 10.49970 | -71.75382 | 1248 ft | 164 kts | 22° |
| 2026-04-30 22:17 | 10.53001 | -71.74091 | 609 ft | 153 kts | 22° |
| 2026-04-30 22:17 | 10.53986 | -71.73673 | 405 ft | 151 kts | 22° |
| 2026-04-30 22:17 | 10.55791 | -71.72903 | 243 ft | 112 kts | 22° |
| 2026-04-30 22:18 | 10.56234 | -71.72705 | 243 ft | 41 kts | 22° |
| 2026-04-30 22:18 | 10.56546 | -71.72430 | 243 ft | 13 kts | 61° |
| 2026-04-30 22:19 | 10.56427 | -71.72431 | 243 ft | 12 kts | 207° |
| 2026-04-30 22:19 | 10.56343 | -71.72468 | 243 ft | 13 kts | 201° |
| 2026-04-30 22:19 | 10.56165 | -71.72543 | 243 ft | 14 kts | 203° |
| 2026-04-30 22:20 | 10.56074 | -71.72584 | 243 ft | 14 kts | 201° |
| 2026-04-30 22:20 | 10.55950 | -71.72465 | 243 ft | 14 kts | 117° |
| 2026-04-30 22:20 | 10.55865 | -71.72435 | 243 ft | 14 kts | 194° |
| 2026-04-30 22:21 | 10.55772 | -71.72479 | 243 ft | 14 kts | 206° |
| 2026-04-30 22:21 | 10.55675 | -71.72515 | 243 ft | 15 kts | 188° |
| 2026-04-30 22:21 | 10.55591 | -71.72523 | 243 ft | 8 kts | 186° |
| 2026-04-30 22:21 | 10.55578 | -71.72524 | 243 ft | 0 kts | 185° |